createdAt,value
2022-11-22T00:00:49.783Z,5.5
2022-11-22T00:02:50.406Z,5.5
2022-11-22T00:04:50.424Z,5.3
2022-11-22T00:06:50.450Z,5.4
2022-11-22T00:08:49.850Z,5.9
2022-11-22T00:10:50.669Z,5.9
2022-11-22T00:12:50.256Z,5.2
2022-11-22T00:14:56.926Z,5.6
2022-11-22T00:16:49.935Z,5.5
2022-11-22T00:18:50.552Z,5.7
2022-11-22T00:20:50.161Z,5.7
2022-11-22T00:22:49.742Z,5.9
2022-11-22T00:24:50.393Z,6.0
2022-11-22T00:26:50.388Z,5.6
2022-11-22T00:28:49.800Z,5.6
2022-11-22T00:30:50.426Z,5.7
2022-11-22T00:32:50.232Z,5.5
2022-11-22T00:34:50.225Z,6.1
2022-11-22T00:36:50.065Z,6.1
2022-11-22T00:38:50.690Z,6.0
2022-11-22T00:40:50.251Z,6.0
2022-11-22T00:42:49.896Z,5.9
2022-11-22T00:44:50.508Z,6.1
2022-11-22T00:46:50.523Z,6.0
2022-11-22T00:48:50.166Z,6.5
2022-11-22T00:50:49.758Z,6.5
2022-11-22T00:52:50.576Z,6.6
2022-11-22T00:54:55.261Z,6.2
2022-11-22T00:56:50.205Z,6.1
2022-11-22T00:58:50.009Z,6.1
2022-11-22T01:00:56.885Z,5.9
2022-11-22T01:02:49.915Z,6.2
2022-11-22T01:04:50.046Z,6.2
2022-11-22T01:06:49.875Z,6.4
2022-11-22T01:08:49.664Z,6.4
2022-11-22T01:10:50.265Z,6.0
2022-11-22T01:12:49.904Z,6.3
2022-11-22T01:14:50.533Z,6.2
2022-11-22T01:16:50.326Z,6.3
2022-11-22T01:18:49.957Z,6.3
2022-11-22T01:20:50.562Z,6.2
2022-11-22T01:22:49.966Z,6.3
2022-11-22T01:24:50.197Z,6.3
2022-11-22T01:26:50.260Z,6.2
2022-11-22T01:28:49.840Z,6.1
2022-11-22T01:30:50.651Z,6.1
2022-11-22T01:32:50.278Z,5.8
2022-11-22T01:34:50.463Z,5.9
2022-11-22T01:36:50.493Z,6.3
2022-11-22T01:38:50.109Z,6.3
2022-11-22T01:40:50.101Z,6.1
2022-11-22T01:42:50.626Z,5.1
2022-11-22T01:44:50.551Z,5.2
2022-11-22T01:46:50.569Z,5.2
2022-11-22T01:48:50.383Z,5.7
2022-11-22T01:50:49.993Z,5.8
2022-11-22T01:52:49.797Z,5.4
2022-11-22T01:54:50.723Z,6.0
2022-11-22T01:56:49.841Z,5.3
2022-11-22T01:58:50.419Z,5.7
2022-11-22T02:00:50.189Z,5.7
2022-11-22T02:02:50.067Z,6.1
2022-11-22T02:04:50.090Z,5.7
2022-11-22T02:06:50.042Z,5.8
2022-11-22T02:08:49.719Z,5.8
2022-11-22T02:10:50.547Z,5.4
2022-11-22T02:12:50.133Z,6.1
2022-11-22T02:14:49.763Z,5.4
2022-11-22T02:16:49.749Z,5.4
2022-11-22T02:18:50.395Z,5.4
2022-11-22T02:20:50.026Z,5.6
2022-11-22T02:22:50.609Z,5.7
2022-11-22T02:24:50.233Z,5.1
2022-11-22T02:26:50.031Z,5.1
2022-11-22T02:28:50.476Z,5.1
2022-11-22T02:30:50.287Z,5.1
2022-11-22T02:32:49.809Z,5.2
2022-11-22T02:34:49.824Z,5.1
2022-11-22T02:36:49.715Z,5.2
2022-11-22T02:38:50.346Z,5.2
2022-11-22T02:40:50.194Z,5.3
2022-11-22T02:42:49.799Z,5.3
2022-11-22T02:44:50.319Z,5.2
2022-11-22T02:46:50.212Z,5.2
2022-11-22T02:48:49.797Z,5.1
2022-11-22T02:50:50.622Z,5.2
2022-11-22T02:52:50.051Z,4.8
2022-11-22T02:54:50.644Z,4.8
2022-11-22T02:56:50.672Z,4.7
2022-11-22T02:58:50.276Z,4.5
2022-11-22T03:00:49.932Z,4.5
2022-11-22T03:02:49.683Z,4.0
2022-11-22T03:04:49.722Z,4.0
2022-11-22T03:06:49.744Z,4.0
2022-11-22T03:08:56.485Z,4.2
2022-11-22T03:10:50.586Z,4.1
2022-11-22T03:12:50.187Z,3.9
2022-11-22T03:14:49.796Z,3.9
2022-11-22T03:16:49.797Z,4.1
2022-11-22T03:18:50.424Z,3.8
2022-11-22T03:20:50.243Z,4.0
2022-11-22T03:22:50.533Z,3.8
2022-11-22T03:24:50.057Z,3.8
2022-11-22T03:26:49.942Z,3.7
2022-11-22T03:28:50.499Z,3.8
2022-11-22T03:30:50.113Z,3.6
2022-11-22T03:32:49.713Z,3.6
2022-11-22T03:34:49.945Z,3.9
2022-11-22T03:36:49.982Z,3.8
2022-11-22T03:38:50.592Z,3.8
2022-11-22T03:40:50.259Z,3.8
2022-11-22T03:42:49.837Z,3.8
2022-11-22T03:44:50.405Z,3.6
2022-11-22T03:46:50.451Z,3.4
2022-11-22T03:48:50.025Z,3.3
2022-11-22T03:50:50.449Z,3.4
2022-11-22T03:52:50.280Z,3.4
2022-11-22T03:54:49.695Z,3.4
2022-11-22T03:56:50.490Z,3.3
2022-11-22T03:58:50.130Z,3.5
2022-11-22T04:00:49.743Z,3.5
2022-11-22T04:02:50.537Z,3.3
2022-11-22T04:04:50.589Z,3.3
2022-11-22T04:06:50.606Z,3.3
2022-11-22T04:08:50.297Z,3.5
2022-11-22T04:10:49.991Z,3.6
2022-11-22T04:12:50.624Z,3.6
2022-11-22T04:14:50.067Z,3.3
2022-11-22T04:16:49.844Z,3.1
2022-11-22T04:18:50.471Z,3.2
2022-11-22T04:20:49.891Z,3.4
2022-11-22T04:22:50.385Z,3.6
2022-11-22T04:24:50.208Z,3.6
2022-11-22T04:26:49.901Z,3.4
2022-11-22T04:29:09.484Z,2.9
2022-11-22T04:30:49.769Z,3.6
2022-11-22T04:32:50.360Z,3.4
2022-11-22T04:34:50.389Z,3.4
2022-11-22T04:36:50.195Z,3.4
2022-11-22T04:38:49.806Z,3.2
2022-11-22T04:40:50.433Z,3.2
2022-11-22T04:42:50.119Z,3.0
2022-11-22T04:44:50.643Z,3.0
2022-11-22T04:46:50.666Z,3.5
2022-11-22T04:48:50.098Z,3.1
2022-11-22T04:50:49.883Z,3.1
2022-11-22T04:52:50.533Z,3.4
2022-11-22T04:54:50.151Z,3.4
2022-11-22T04:56:50.171Z,3.1
2022-11-22T04:58:49.753Z,3.7
2022-11-22T05:00:50.737Z,3.7
2022-11-22T05:02:50.390Z,3.5
2022-11-22T05:04:51.108Z,3.5
2022-11-22T05:06:50.019Z,3.1
2022-11-22T05:08:50.610Z,3.1
2022-11-22T05:10:50.437Z,3.4
2022-11-22T05:12:50.071Z,3.3
2022-11-22T05:14:49.864Z,3.3
2022-11-22T05:16:49.902Z,3.3
2022-11-22T05:18:50.391Z,3.3
2022-11-22T05:20:50.157Z,3.6
2022-11-22T05:22:49.747Z,3.6
2022-11-22T05:24:50.346Z,3.5
2022-11-22T05:26:50.170Z,3.5
2022-11-22T05:28:50.583Z,3.4
2022-11-22T05:30:50.217Z,3.5
2022-11-22T05:32:49.830Z,3.4
2022-11-22T05:34:49.840Z,3.3
2022-11-22T05:36:49.855Z,3.2
2022-11-22T05:38:50.257Z,3.2
2022-11-22T05:40:49.895Z,3.6
2022-11-22T05:42:50.489Z,3.3
2022-11-22T05:44:50.094Z,3.4
2022-11-22T05:46:50.118Z,3.6
2022-11-22T05:48:50.534Z,3.6
2022-11-22T05:50:50.143Z,4.0
2022-11-22T05:52:49.768Z,3.7
2022-11-22T05:54:50.482Z,3.4
2022-11-22T05:56:50.370Z,3.4
2022-11-22T05:58:50.226Z,3.4
2022-11-22T06:00:49.822Z,3.2
2022-11-22T06:02:50.412Z,3.5
2022-11-22T06:04:50.456Z,3.5
2022-11-22T06:06:50.510Z,3.4
2022-11-22T06:08:50.284Z,3.6
2022-11-22T06:10:49.922Z,3.9
2022-11-22T06:12:50.511Z,3.5
2022-11-22T06:14:50.115Z,3.5
2022-11-22T06:16:49.949Z,3.7
2022-11-22T06:18:50.537Z,3.7
2022-11-22T06:20:50.204Z,4.4
2022-11-22T06:22:49.856Z,3.7
2022-11-22T06:24:50.612Z,3.7
2022-11-22T06:26:50.604Z,3.6
2022-11-22T06:28:50.269Z,3.9
2022-11-22T06:30:49.835Z,3.6
2022-11-22T06:32:50.429Z,3.6
2022-11-22T06:34:50.684Z,4.0
2022-11-22T06:36:49.680Z,4.0
2022-11-22T06:38:50.484Z,4.5
2022-11-22T06:40:50.097Z,4.7
2022-11-22T06:42:49.920Z,4.7
2022-11-22T06:44:50.549Z,4.9
2022-11-22T06:46:50.355Z,4.9
2022-11-22T06:48:50.191Z,4.1
2022-11-22T06:50:49.760Z,4.6
2022-11-22T06:52:50.210Z,5.4
2022-11-22T06:54:50.060Z,6.5
2022-11-22T06:56:50.037Z,6.5
2022-11-22T06:58:50.659Z,17.9
2022-11-22T07:00:50.274Z,5.9
2022-11-22T07:02:50.089Z,5.3
2022-11-22T07:05:23.684Z,5.3
2022-11-22T07:06:50.291Z,4.2
2022-11-22T07:08:49.914Z,4.2
2022-11-22T07:10:50.541Z,3.8
2022-11-22T07:12:50.140Z,3.9
2022-11-22T07:14:49.962Z,3.9
2022-11-22T07:16:49.985Z,4.0
2022-11-22T07:18:49.776Z,3.8
2022-11-22T07:20:50.249Z,3.7
2022-11-22T07:22:49.801Z,3.7
2022-11-22T07:24:50.424Z,3.5
2022-11-22T07:26:50.257Z,4.4
2022-11-22T07:28:49.850Z,4.3
2022-11-22T07:30:49.691Z,4.3
2022-11-22T07:32:50.100Z,4.3
2022-11-22T07:34:49.914Z,4.7
2022-11-22T07:36:59.189Z,4.1
2022-11-22T07:38:50.256Z,4.0
2022-11-22T07:40:49.951Z,6.2
2022-11-22T07:42:58.658Z,6.2
2022-11-22T07:44:50.603Z,5.0
2022-11-22T07:46:50.625Z,4.4
2022-11-22T07:48:50.197Z,4.1
2022-11-22T07:50:50.040Z,4.1
2022-11-22T07:52:50.631Z,4.1
2022-11-22T07:54:50.423Z,4.1
2022-11-22T07:56:50.476Z,4.0
2022-11-22T07:58:50.101Z,4.0
2022-11-22T08:00:49.725Z,4.1
2022-11-22T08:02:50.125Z,4.1
2022-11-22T08:04:50.330Z,4.6
2022-11-22T08:06:50.346Z,4.9
2022-11-22T08:08:49.959Z,5.4
2022-11-22T08:10:50.627Z,4.7
2022-11-22T08:12:50.057Z,4.7
2022-11-22T08:14:49.796Z,4.3
2022-11-22T08:16:50.621Z,4.3
2022-11-22T08:18:50.239Z,4.9
2022-11-22T08:20:49.871Z,4.9
2022-11-22T08:22:50.426Z,7.6
2022-11-22T08:24:50.305Z,5.3
2022-11-22T08:26:50.339Z,5.2
2022-11-22T08:28:49.894Z,5.2
2022-11-22T08:30:49.878Z,4.9
2022-11-22T08:32:50.504Z,5.3
2022-11-22T08:34:50.541Z,5.3
2022-11-22T08:36:50.350Z,5.1
2022-11-22T08:38:50.158Z,6.3
2022-11-22T08:40:49.796Z,6.3
2022-11-22T08:42:50.599Z,5.2
2022-11-22T08:44:50.192Z,4.6
2022-11-22T08:46:50.243Z,4.5
2022-11-22T08:48:49.835Z,4.5
2022-11-22T08:50:50.258Z,4.9
2022-11-22T08:52:49.872Z,4.6
2022-11-22T08:54:50.472Z,4.4
2022-11-22T08:56:50.313Z,3.9
2022-11-22T08:58:50.246Z,4.2
2022-11-22T09:00:50.125Z,4.2
2022-11-22T09:02:50.139Z,4.0
2022-11-22T09:04:50.191Z,4.1
2022-11-22T09:09:22.533Z,4.0
2022-11-22T09:10:50.285Z,4.0
2022-11-22T09:12:49.802Z,4.0
2022-11-22T09:14:50.603Z,4.1
2022-11-22T09:16:49.850Z,4.1
2022-11-22T09:18:50.467Z,4.1
2022-11-22T09:20:50.134Z,4.0
2022-11-22T09:22:49.711Z,4.0
2022-11-22T09:24:50.486Z,3.9
2022-11-22T09:26:50.304Z,4.0
2022-11-22T09:28:49.737Z,4.0
2022-11-22T09:30:50.558Z,4.1
2022-11-22T09:32:50.187Z,4.1
2022-11-22T09:34:50.199Z,3.6
2022-11-22T09:36:50.186Z,3.6
2022-11-22T09:38:50.001Z,4.0
2022-11-22T09:40:50.604Z,3.8
2022-11-22T09:42:50.255Z,3.8
2022-11-22T09:44:50.047Z,3.8
2022-11-22T09:46:50.284Z,3.7
2022-11-22T09:48:50.069Z,3.7
2022-11-22T09:50:49.705Z,3.5
2022-11-22T09:52:50.519Z,3.8
2022-11-22T09:54:50.125Z,3.8
2022-11-22T09:56:50.130Z,3.8
2022-11-22T09:58:49.720Z,3.8
2022-11-22T10:00:52.856Z,3.9
2022-11-22T10:03:00.754Z,3.9
2022-11-22T10:04:49.827Z,3.9
2022-11-22T10:06:49.845Z,3.8
2022-11-22T10:08:50.417Z,3.8
2022-11-22T10:10:50.254Z,3.7
2022-11-22T10:12:49.882Z,3.4
2022-11-22T10:14:49.751Z,3.8
2022-11-22T10:16:49.667Z,3.8
2022-11-22T10:18:50.118Z,3.7
2022-11-22T10:20:49.904Z,3.5
2022-11-22T10:22:50.530Z,3.9
2022-11-22T10:24:50.364Z,3.5
2022-11-22T10:26:50.402Z,3.5
2022-11-22T10:28:50.184Z,3.3
2022-11-22T10:30:49.776Z,2.9
2022-11-22T10:32:50.199Z,2.7
2022-11-22T10:34:50.230Z,3.8
2022-11-22T10:36:50.051Z,3.8
2022-11-22T10:38:49.844Z,3.4
2022-11-22T10:40:50.471Z,2.6
2022-11-22T10:42:50.083Z,3.8
2022-11-22T10:44:49.895Z,3.6
2022-11-22T10:46:57.063Z,3.6
2022-11-22T10:48:50.128Z,2.7
2022-11-22T10:50:49.720Z,2.7
2022-11-22T10:52:50.192Z,3.0
2022-11-22T10:54:49.759Z,2.6
2022-11-22T10:56:50.548Z,2.3
2022-11-22T10:58:50.634Z,2.7
2022-11-22T11:00:50.322Z,2.2
2022-11-22T11:02:50.422Z,2.2
2022-11-22T11:04:50.441Z,2.2
2022-11-22T11:07:12.661Z,2.8
2022-11-22T11:09:48.291Z,2.2
2022-11-22T11:10:50.173Z,2.8
2022-11-22T11:12:50.119Z,3.0
2022-11-22T11:14:49.693Z,3.0
2022-11-22T11:16:50.526Z,2.6
2022-11-22T11:18:50.160Z,2.7
2022-11-22T11:20:49.768Z,2.2
2022-11-22T11:23:14.572Z,2.4
2022-11-22T11:24:50.694Z,2.4
2022-11-22T11:26:50.403Z,2.4
2022-11-22T11:28:50.064Z,2.1
2022-11-22T11:30:50.612Z,2.5
2022-11-22T11:32:50.229Z,2.5
2022-11-22T11:34:50.324Z,2.2
2022-11-22T11:36:50.476Z,2.3
2022-11-22T11:38:50.073Z,2.2
2022-11-22T11:40:49.691Z,2.5
2022-11-22T11:42:50.419Z,2.5
2022-11-22T11:44:49.921Z,2.3
2022-11-22T11:46:49.932Z,1.9
2022-11-22T11:48:50.356Z,2.3
2022-11-22T11:50:49.935Z,2.0
2022-11-22T11:52:50.571Z,2.0
2022-11-22T11:54:49.988Z,2.4
2022-11-22T11:56:49.997Z,2.0
2022-11-22T11:58:49.830Z,2.4
2022-11-22T12:00:50.424Z,2.6
2022-11-22T12:02:50.228Z,2.6
2022-11-22T12:04:49.851Z,2.5
2022-11-22T12:06:49.889Z,2.7
2022-11-22T12:08:50.478Z,2.7
2022-11-22T12:10:50.113Z,2.7
2022-11-22T12:12:50.522Z,2.4
2022-11-22T12:15:11.803Z,2.1
2022-11-22T12:16:49.935Z,2.1
2022-11-22T12:18:50.556Z,2.3
2022-11-22T12:20:50.418Z,2.0
2022-11-22T12:22:51.013Z,2.0
2022-11-22T12:25:24.672Z,2.1
2022-11-22T12:26:49.890Z,2.2
2022-11-22T12:28:50.258Z,2.4
2022-11-22T12:30:50.074Z,2.3
2022-11-22T12:32:50.465Z,2.3
2022-11-22T12:34:50.506Z,2.5
2022-11-22T12:36:50.490Z,2.1
2022-11-22T12:38:49.916Z,2.7
2022-11-22T12:40:49.708Z,2.7
2022-11-22T12:42:50.364Z,2.5
2022-11-22T12:44:49.957Z,2.2
2022-11-22T12:46:49.959Z,2.2
2022-11-22T12:48:50.586Z,2.5
2022-11-22T12:50:50.189Z,2.5
2022-11-22T12:52:49.813Z,2.5
2022-11-22T12:54:50.235Z,2.1
2022-11-22T12:56:50.277Z,2.2
2022-11-22T12:58:49.864Z,2.2
2022-11-22T13:00:50.394Z,2.6
2022-11-22T13:02:58.893Z,2.4
2022-11-22T13:04:50.569Z,2.4
2022-11-22T13:06:50.179Z,2.5
2022-11-22T13:08:57.732Z,2.1
2022-11-22T13:10:49.938Z,2.1
2022-11-22T13:12:50.337Z,2.4
2022-11-22T13:14:50.106Z,4.1
2022-11-22T13:16:50.650Z,2.6
2022-11-22T13:18:50.189Z,2.6
2022-11-22T13:20:49.835Z,2.4
2022-11-22T13:22:50.455Z,2.1
2022-11-22T13:24:50.047Z,2.7
2022-11-22T13:26:49.853Z,2.3
2022-11-22T13:28:50.682Z,2.4
2022-11-22T13:30:50.272Z,2.4
2022-11-22T13:32:49.898Z,2.5
2022-11-22T13:34:49.714Z,2.9
2022-11-22T13:36:50.508Z,2.4
2022-11-22T13:38:50.175Z,2.4
2022-11-22T13:40:50.590Z,2.9
2022-11-22T13:42:50.181Z,2.7
2022-11-22T13:44:49.882Z,4.2
2022-11-22T13:46:50.637Z,2.2
2022-11-22T13:48:50.439Z,2.2
2022-11-22T13:50:50.089Z,2.7
2022-11-22T13:52:50.491Z,3.0
2022-11-22T13:54:50.581Z,3.0
2022-11-22T13:56:50.289Z,2.5
2022-11-22T13:58:51.859Z,2.3
2022-11-22T14:00:50.425Z,2.5
2022-11-22T14:02:50.453Z,2.7
2022-11-22T14:04:50.489Z,3.0
2022-11-22T14:06:50.504Z,2.6
2022-11-22T14:08:50.099Z,2.6
2022-11-22T14:10:49.729Z,2.6
2022-11-22T14:12:50.325Z,4.2
2022-11-22T14:14:50.151Z,2.7
2022-11-22T14:16:49.946Z,3.5
2022-11-22T14:18:50.355Z,3.5
2022-11-22T14:20:50.188Z,3.4
2022-11-22T14:22:49.770Z,3.4
2022-11-22T14:24:50.388Z,2.5
2022-11-22T14:26:50.406Z,2.7
2022-11-22T14:28:50.316Z,2.7
2022-11-22T14:30:50.071Z,3.4
2022-11-22T14:32:50.638Z,2.8
2022-11-22T14:34:49.879Z,3.3
2022-11-22T14:36:49.938Z,3.3
2022-11-22T14:38:49.736Z,4.7
2022-11-22T14:40:50.349Z,3.3
2022-11-22T14:42:49.977Z,3.0
2022-11-22T14:44:50.546Z,3.3
2022-11-22T14:46:54.271Z,3.3
2022-11-22T14:48:50.373Z,3.2
2022-11-22T14:50:50.035Z,2.8
2022-11-22T14:52:49.830Z,3.3
2022-11-22T14:54:50.433Z,3.0
2022-11-22T14:56:50.457Z,3.0
2022-11-22T14:58:50.257Z,3.0
2022-11-22T15:00:49.850Z,2.8
2022-11-22T15:02:50.474Z,3.2
2022-11-22T15:09:06.841Z,3.0
2022-11-22T15:09:07.026Z,3.3
2022-11-22T15:09:08.184Z,3.0
2022-11-22T15:10:50.532Z,4.0
2022-11-22T15:12:50.592Z,3.6
2022-11-22T15:14:49.777Z,3.6
2022-11-22T15:58:49.800Z,3.3
2022-11-22T16:00:59.181Z,3.4
2022-11-22T16:02:50.487Z,3.4
2022-11-22T16:06:03.447Z,3.5
2022-11-22T16:06:49.719Z,3.5
2022-11-22T16:08:50.541Z,3.5
2022-11-22T16:10:50.527Z,3.2
2022-11-22T16:12:50.085Z,3.6
2022-11-22T16:14:50.421Z,3.5
2022-11-22T16:16:50.240Z,3.6
2022-11-22T16:18:49.824Z,3.6
2022-11-22T16:20:49.833Z,3.8
2022-11-22T16:22:50.264Z,3.8
2022-11-22T16:24:49.851Z,3.4
2022-11-22T16:26:49.945Z,4.5
2022-11-22T16:28:50.314Z,4.1
2022-11-22T16:30:49.914Z,4.1
2022-11-22T16:32:50.522Z,3.8
2022-11-22T16:35:21.981Z,3.9
2022-11-22T16:36:49.966Z,4.0
2022-11-22T16:38:50.574Z,3.7
2022-11-22T16:40:50.205Z,3.7
2022-11-22T16:42:49.823Z,4.2
2022-11-22T16:44:50.412Z,4.2
2022-11-22T16:46:50.439Z,4.1
2022-11-22T16:48:50.059Z,4.1
2022-11-22T16:50:50.682Z,4.3
2022-11-22T16:52:50.467Z,4.0
2022-11-22T16:54:49.898Z,4.1
2022-11-22T16:56:49.908Z,4.8
2022-11-22T16:58:50.509Z,4.8
2022-11-22T17:00:50.297Z,4.8
2022-11-22T17:02:50.156Z,4.8
2022-11-22T17:04:50.149Z,4.6
2022-11-22T17:06:49.954Z,5.4
2022-11-22T17:08:50.604Z,5.3
2022-11-22T17:10:50.165Z,5.3
2022-11-22T17:12:49.803Z,4.9
2022-11-22T17:14:50.414Z,4.9
2022-11-22T17:16:50.272Z,4.7
2022-11-22T17:18:49.863Z,4.6
2022-11-22T17:20:50.250Z,4.6
2022-11-22T17:22:49.700Z,5.0
2022-11-22T17:24:50.473Z,4.9
2022-11-22T17:26:50.326Z,4.9
2022-11-22T17:28:49.724Z,4.9
2022-11-22T17:30:50.564Z,4.6
2022-11-22T17:32:50.044Z,4.6
2022-11-22T17:34:50.185Z,4.3
2022-11-22T17:36:49.966Z,4.3
2022-11-22T17:38:50.496Z,4.8
2022-11-22T17:40:50.253Z,4.8
2022-11-22T17:42:49.853Z,4.1
2022-11-22T17:44:50.230Z,4.2
2022-11-22T17:46:50.058Z,3.9
2022-11-22T17:48:50.486Z,3.9
2022-11-22T17:50:50.095Z,4.3
2022-11-22T17:52:49.698Z,4.7
2022-11-22T17:54:50.283Z,4.7
2022-11-22T17:56:50.161Z,3.9
2022-11-22T17:58:49.747Z,3.9
2022-11-22T18:00:50.591Z,3.8
2022-11-22T18:02:50.419Z,4.9
2022-11-22T18:04:49.882Z,4.6
2022-11-22T18:06:50.479Z,4.2
2022-11-22T18:08:50.137Z,4.2
2022-11-22T18:10:49.719Z,4.5
2022-11-22T18:13:20.081Z,4.3
2022-11-22T18:14:50.059Z,4.2
2022-11-22T18:16:49.968Z,4.8
2022-11-22T18:18:58.382Z,4.8
2022-11-22T18:20:49.811Z,4.4
2022-11-22T18:22:50.423Z,4.4
2022-11-22T18:24:50.040Z,4.4
2022-11-22T18:26:50.050Z,5.1
2022-11-22T18:29:35.423Z,4.9
2022-11-22T18:30:50.424Z,5.0
2022-11-22T18:32:49.859Z,5.1
2022-11-22T18:34:49.712Z,5.5
2022-11-22T18:38:55.934Z,4.7
2022-11-22T18:40:50.550Z,5.2
2022-11-22T18:42:49.969Z,5.0
2022-11-22T18:44:50.621Z,4.9
2022-11-22T18:46:50.579Z,4.9
2022-11-22T18:48:50.043Z,5.0
2022-11-22T18:50:50.637Z,5.5
2022-11-22T18:52:50.442Z,5.5
2022-11-22T18:54:49.855Z,5.0
2022-11-22T18:56:49.998Z,5.0
2022-11-22T18:58:49.671Z,5.2
2022-11-22T19:00:50.139Z,5.7
2022-11-22T19:02:49.905Z,5.6
2022-11-22T19:04:49.957Z,5.6
2022-11-22T19:06:49.751Z,5.3
2022-11-22T19:08:50.548Z,5.4
2022-11-22T19:10:49.975Z,5.3
2022-11-22T19:12:50.623Z,6.0
2022-11-22T19:14:50.392Z,6.4
2022-11-22T19:16:50.285Z,6.4
2022-11-22T19:18:49.879Z,5.9
2022-11-22T19:20:55.815Z,6.4
2022-11-22T19:22:50.443Z,5.9
2022-11-22T19:24:49.880Z,5.9
2022-11-22T19:26:49.882Z,5.8
2022-11-22T19:28:50.584Z,6.6
2022-11-22T19:30:50.327Z,6.3
2022-11-22T19:32:49.814Z,6.3
2022-11-22T19:34:50.614Z,6.6
2022-11-22T19:36:49.756Z,7.2
2022-11-22T19:38:50.412Z,6.9
2022-11-22T19:40:50.006Z,7.0
2022-11-22T19:42:50.649Z,6.2
2022-11-22T19:44:50.192Z,6.2
2022-11-22T19:46:50.057Z,7.2
2022-11-22T19:48:49.896Z,6.4
2022-11-22T19:50:50.431Z,6.4
2022-11-22T19:52:50.110Z,6.4
2022-11-22T19:54:49.693Z,6.5
2022-11-22T19:56:50.354Z,6.4
2022-11-22T19:58:50.060Z,6.7
2022-11-22T20:00:49.961Z,6.7
2022-11-22T20:02:49.756Z,6.3
2022-11-22T20:04:49.802Z,7.0
2022-11-22T20:06:50.792Z,6.5
2022-11-22T20:08:50.394Z,6.5
2022-11-22T20:10:50.262Z,6.4
2022-11-22T20:12:49.831Z,6.4
2022-11-22T20:14:50.437Z,5.8
2022-11-22T20:16:50.466Z,6.6
2022-11-22T20:18:49.886Z,6.4
2022-11-22T20:20:50.474Z,6.8
2022-11-22T20:22:49.931Z,6.8
2022-11-22T20:24:50.502Z,6.3
2022-11-22T20:26:50.329Z,6.0
2022-11-22T20:28:49.946Z,6.3
2022-11-22T20:30:50.562Z,6.3
2022-11-22T20:32:50.175Z,6.3
2022-11-22T20:34:50.424Z,6.1
2022-11-22T20:36:50.428Z,6.1
2022-11-22T20:38:50.238Z,6.5
2022-11-22T20:40:49.809Z,6.5
2022-11-22T20:42:50.228Z,6.4
2022-11-22T20:44:49.843Z,6.3
2022-11-22T20:46:50.659Z,6.7
2022-11-22T20:48:50.342Z,6.5
2022-11-22T20:50:50.283Z,6.5
2022-11-22T20:52:49.694Z,7.0
2022-11-22T20:54:50.135Z,6.3
2022-11-22T20:56:49.938Z,6.2
2022-11-22T20:58:50.349Z,6.6
2022-11-22T21:00:50.101Z,6.3
2022-11-22T21:02:49.966Z,6.3
2022-11-22T21:04:50.216Z,6.3
2022-11-22T21:06:50.216Z,6.3
2022-11-22T21:08:50.637Z,6.7
2022-11-22T21:10:50.423Z,6.7
2022-11-22T21:12:49.972Z,6.5
2022-11-22T21:14:53.965Z,6.4
2022-11-22T21:16:49.776Z,6.3
2022-11-22T21:18:50.431Z,6.3
2022-11-22T21:20:50.017Z,6.3
2022-11-22T21:22:50.603Z,6.7
2022-11-22T21:24:50.248Z,6.1
2022-11-22T21:26:50.113Z,6.1
2022-11-22T21:28:49.829Z,5.6
2022-11-22T21:30:50.492Z,6.4
2022-11-22T21:32:49.912Z,6.3
2022-11-22T21:34:49.720Z,5.4
2022-11-22T21:36:49.733Z,6.3
2022-11-22T21:38:50.328Z,5.9
2022-11-22T21:40:49.972Z,5.9
2022-11-22T21:42:50.556Z,5.9
2022-11-22T21:44:49.973Z,6.1
2022-11-22T21:46:49.795Z,5.9
2022-11-22T21:48:50.222Z,5.8
2022-11-22T21:50:49.837Z,5.8
2022-11-22T21:52:50.459Z,6.2
2022-11-22T21:54:50.073Z,5.5
2022-11-22T21:56:50.088Z,6.3
2022-11-22T21:58:49.680Z,6.3
2022-11-22T22:00:50.072Z,5.6
2022-11-22T22:02:49.717Z,6.0
2022-11-22T22:04:49.954Z,5.6
2022-11-22T22:06:49.961Z,5.8
2022-11-22T22:08:50.586Z,5.8
2022-11-22T22:10:50.159Z,5.7
2022-11-22T22:12:49.785Z,5.5
2022-11-22T22:14:50.411Z,5.5
2022-11-22T22:16:50.229Z,5.4
2022-11-22T22:18:49.842Z,5.4
2022-11-22T22:20:50.237Z,5.2
2022-11-22T22:22:49.861Z,5.6
2022-11-22T22:24:50.488Z,5.7
2022-11-22T22:26:50.319Z,5.7
2022-11-22T22:28:49.885Z,5.7
2022-11-22T22:30:50.362Z,5.7
2022-11-22T22:32:50.131Z,5.4
2022-11-22T22:34:50.188Z,5.6
2022-11-22T22:36:50.176Z,5.6
2022-11-22T22:38:50.586Z,5.9
2022-11-22T22:40:50.195Z,5.7
2022-11-22T22:42:50.017Z,5.4
2022-11-22T22:44:50.618Z,5.8
2022-11-22T22:46:50.474Z,5.8
2022-11-22T22:48:50.285Z,5.8
2022-11-22T22:50:50.644Z,5.5
2022-11-22T22:52:50.279Z,5.8
2022-11-22T22:54:49.688Z,5.4
2022-11-22T22:56:50.309Z,5.4
2022-11-22T22:58:49.944Z,5.4
2022-11-22T23:00:50.314Z,5.6
2022-11-22T23:02:50.079Z,5.7
2022-11-22T23:04:50.387Z,5.7
2022-11-22T23:06:50.007Z,5.8
2022-11-22T23:08:49.820Z,6.0
2022-11-22T23:10:50.391Z,5.3
2022-11-22T23:12:49.846Z,5.6
2022-11-22T23:14:50.434Z,5.4
2022-11-22T23:16:57.546Z,5.4
2022-11-22T23:18:50.279Z,5.5
2022-11-22T23:20:49.678Z,6.1
2022-11-22T23:22:50.081Z,5.4
2022-11-22T23:24:49.705Z,5.5
2022-11-22T23:26:50.511Z,5.5
2022-11-22T23:28:50.141Z,5.5
2022-11-22T23:30:49.774Z,5.4
2022-11-22T23:32:50.364Z,5.4
2022-11-22T23:34:50.405Z,5.7
2022-11-22T23:36:49.987Z,5.7
2022-11-22T23:38:49.830Z,6.2
2022-11-22T23:40:50.442Z,6.2
2022-11-22T23:42:49.837Z,5.8
2022-11-22T23:44:50.474Z,5.8
2022-11-22T23:46:50.280Z,5.9
2022-11-22T23:48:49.900Z,5.8
2022-11-22T23:50:50.544Z,6.1
2022-11-22T23:52:49.930Z,6.1
2022-11-22T23:54:49.720Z,5.6
2022-11-22T23:56:50.542Z,5.4
2022-11-22T23:58:50.171Z,5.4
